Atwood, Wisconsin
Current Conditions -  °F | °C
As of 4:15 PM on Saturday 25 Oct 2014 (Local Time) from KMDZ Reporting Station
Clear Clear  
Wind Chill: 15°   Ceiling: Unl
Heat Index: 15°   Visibility: 10mi
Dew Point: -2°   Wind: 20mph
Humidity: 32%   Direction: 290°WNW
Pressure: 29.91"   Gusts: 29mph
Location:  44.9782°N, 90.5368°W
Report Text: KMDZ 252115Z AUTO 29017G25KT 10SM CLR 15/M02 A2991 RMK AO2 T01451020
Loading
Personal Weather Stations






























Interactive Weather Map
Tropical Storm Tracking
New forecast layout! Learn more

10-Day Weather Forecast

Advertisements
Track Severe Weather on mobile